createdAt,value
2022-12-19T00:02:20.169Z,69.72
2022-12-19T00:04:52.197Z,69.80
2022-12-19T00:07:24.200Z,69.70
2022-12-19T00:09:56.242Z,69.72
2022-12-19T00:12:28.155Z,69.55
2022-12-19T00:15:03.421Z,69.54
2022-12-19T00:17:35.375Z,69.74
2022-12-19T00:20:09.875Z,69.45
2022-12-19T00:22:43.619Z,69.40
2022-12-19T00:25:15.768Z,69.39
2022-12-19T00:27:48.052Z,69.46
2022-12-19T00:30:20.174Z,69.45
2022-12-19T00:32:52.843Z,69.80
2022-12-19T00:35:25.273Z,69.62
2022-12-19T00:37:57.673Z,69.55
2022-12-19T00:40:29.694Z,69.81
2022-12-19T00:43:01.715Z,69.79
2022-12-19T00:45:33.898Z,69.80
2022-12-19T00:48:06.297Z,69.39
2022-12-19T00:50:39.570Z,69.52
2022-12-19T00:53:11.587Z,69.60
2022-12-19T00:55:43.881Z,69.78
2022-12-19T00:58:15.856Z,69.79
2022-12-19T01:00:47.910Z,69.84
2022-12-19T01:03:19.986Z,69.49
2022-12-19T01:05:52.777Z,69.71
2022-12-19T01:08:25.966Z,70.38
2022-12-19T01:11:00.333Z,70.50
2022-12-19T01:13:34.230Z,70.21
2022-12-19T01:16:11.242Z,70.19
2022-12-19T01:18:43.936Z,70.28
2022-12-19T01:21:15.918Z,70.33
2022-12-19T01:23:47.896Z,69.81
2022-12-19T01:26:19.916Z,70.01
2022-12-19T01:28:51.969Z,70.09
2022-12-19T01:31:24.059Z,69.63
2022-12-19T01:33:56.078Z,69.70
2022-12-19T01:36:28.167Z,69.64
2022-12-19T01:39:00.254Z,69.67
2022-12-19T01:41:32.237Z,69.80
2022-12-19T01:44:06.917Z,69.90
2022-12-19T01:46:43.927Z,69.73
2022-12-19T01:49:37.041Z,69.53
2022-12-19T01:52:11.711Z,69.31
2022-12-19T01:54:51.963Z,69.40
2022-12-19T01:57:24.101Z,69.28
2022-12-19T02:00:00.262Z,69.55
2022-12-19T02:02:46.735Z,69.18
2022-12-19T02:05:19.021Z,69.17
2022-12-19T02:07:52.033Z,69.20
2022-12-19T02:10:24.095Z,69.04
2022-12-19T02:12:57.888Z,68.80
2022-12-19T02:15:37.249Z,68.82
2022-12-19T02:18:27.167Z,68.96
2022-12-19T02:21:17.973Z,69.43
2022-12-19T02:24:08.173Z,68.92
2022-12-19T02:26:58.791Z,68.34
2022-12-19T02:29:30.505Z,67.98
2022-12-19T02:32:15.594Z,68.47
2022-12-19T02:34:53.449Z,68.47
2022-12-19T02:37:31.171Z,68.19
2022-12-19T02:40:09.870Z,68.05
2022-12-19T02:42:47.151Z,68.28
2022-12-19T02:45:28.643Z,68.37
2022-12-19T02:48:08.397Z,68.91
2022-12-19T02:50:46.857Z,69.19
2022-12-19T02:53:23.848Z,69.39
2022-12-19T02:56:19.741Z,69.41
2022-12-19T02:59:33.181Z,69.39
2022-12-19T03:02:18.633Z,70.12
2022-12-19T03:05:14.183Z,70.31
2022-12-19T03:08:16.760Z,70.12
2022-12-19T03:11:00.901Z,69.91
2022-12-19T03:13:37.242Z,69.98
2022-12-19T03:16:11.414Z,70.07
2022-12-19T03:18:44.448Z,70.09
2022-12-19T03:21:40.917Z,69.85
2022-12-19T03:24:14.735Z,69.66
2022-12-19T03:26:54.577Z,69.85
2022-12-19T03:29:46.097Z,70.12
2022-12-19T03:32:19.119Z,70.27
2022-12-19T03:35:08.198Z,70.24
2022-12-19T03:37:43.754Z,70.44
2022-12-19T03:40:21.872Z,70.92
2022-12-19T03:43:12.728Z,70.94
2022-12-19T03:46:09.582Z,70.56
2022-12-19T03:48:45.874Z,70.51
2022-12-19T03:51:29.982Z,70.90
2022-12-19T03:54:41.309Z,71.13
2022-12-19T03:57:40.210Z,71.23
2022-12-19T04:00:16.419Z,71.35
2022-12-19T04:02:52.633Z,71.28
2022-12-19T04:05:27.490Z,71.55
2022-12-19T04:08:05.167Z,71.13
2022-12-19T04:10:48.144Z,70.79
2022-12-19T04:13:45.226Z,71.14
2022-12-19T04:16:25.405Z,71.12
2022-12-19T04:19:03.749Z,71.24
2022-12-19T04:21:43.309Z,70.86
2022-12-19T04:24:24.393Z,70.81
2022-12-19T04:26:57.909Z,71.23
2022-12-19T04:29:33.484Z,70.60
2022-12-19T04:32:07.351Z,71.37
2022-12-19T04:34:42.890Z,71.30
2022-12-19T04:37:15.717Z,71.24
2022-12-19T04:39:47.737Z,71.16
2022-12-19T04:42:19.708Z,71.30
2022-12-19T04:44:51.702Z,70.95
2022-12-19T04:47:23.679Z,70.97
2022-12-19T04:49:55.674Z,71.07
2022-12-19T04:52:27.700Z,71.10
2022-12-19T04:54:59.743Z,71.13
2022-12-19T04:57:32.653Z,70.80
2022-12-19T05:00:07.513Z,71.16
2022-12-19T05:02:39.821Z,71.14
2022-12-19T05:05:12.326Z,71.46
2022-12-19T05:07:44.434Z,71.38
2022-12-19T05:10:18.525Z,71.70
2022-12-19T05:12:50.861Z,71.27
2022-12-19T05:15:23.860Z,70.99
2022-12-19T05:17:55.880Z,70.99
2022-12-19T05:20:28.203Z,71.14
2022-12-19T05:23:04.330Z,71.30
2022-12-19T05:25:37.807Z,71.22
2022-12-19T05:28:10.195Z,71.26
2022-12-19T05:30:43.960Z,72.23
2022-12-19T05:33:18.857Z,71.70
2022-12-19T05:35:50.871Z,71.63
2022-12-19T05:38:22.844Z,71.29
2022-12-19T05:40:55.482Z,71.16
2022-12-19T05:43:27.945Z,71.63
2022-12-19T05:45:59.937Z,71.69
2022-12-19T05:48:32.039Z,72.07
2022-12-19T05:51:04.728Z,72.15
2022-12-19T05:53:37.774Z,71.78
2022-12-19T05:56:12.861Z,71.33
2022-12-19T05:58:45.616Z,71.78
2022-12-19T06:01:23.263Z,71.39
2022-12-19T06:03:56.354Z,70.76
2022-12-19T06:06:28.495Z,70.89
2022-12-19T06:09:00.626Z,71.13
2022-12-19T06:11:32.690Z,71.21
2022-12-19T06:14:07.374Z,71.76
2022-12-19T06:16:39.495Z,71.45
2022-12-19T06:19:11.711Z,71.71
2022-12-19T06:21:48.207Z,71.40
2022-12-19T06:24:21.785Z,71.74
2022-12-19T06:26:53.832Z,71.66
2022-12-19T06:29:26.018Z,71.58
2022-12-19T06:31:58.065Z,71.20
2022-12-19T06:35:02.399Z,71.45
2022-12-19T06:37:22.111Z,71.27
2022-12-19T06:39:54.119Z,72.03
2022-12-19T06:42:26.197Z,71.45
2022-12-19T06:44:58.272Z,70.97
2022-12-19T06:47:30.253Z,70.92
2022-12-19T06:50:02.532Z,71.37
2022-12-19T06:52:34.486Z,71.07
2022-12-19T06:55:07.203Z,71.24
2022-12-19T06:57:46.153Z,71.01
2022-12-19T07:00:18.547Z,70.78
2022-12-19T07:02:52.681Z,71.11
2022-12-19T07:05:24.953Z,70.95
2022-12-19T07:07:56.908Z,70.63
2022-12-19T07:10:29.803Z,70.41
2022-12-19T07:13:02.343Z,70.40
2022-12-19T07:15:36.625Z,70.49
2022-12-19T07:18:10.315Z,69.96
2022-12-19T07:20:46.702Z,69.96
2022-12-19T07:23:22.660Z,69.51
2022-12-19T07:25:54.544Z,69.70
2022-12-19T07:28:26.951Z,70.36
2022-12-19T07:30:59.010Z,70.91
2022-12-19T07:33:31.089Z,70.62
2022-12-19T07:36:03.182Z,69.73
2022-12-19T07:38:37.022Z,69.85
2022-12-19T07:41:09.041Z,69.27
2022-12-19T07:43:41.064Z,68.91
2022-12-19T07:46:13.505Z,69.22
2022-12-19T07:48:45.544Z,69.15
2022-12-19T07:51:17.682Z,69.21
2022-12-19T07:53:49.804Z,68.95
2022-12-19T07:56:22.061Z,69.55
2022-12-19T07:58:54.318Z,68.79
2022-12-19T08:01:28.589Z,68.75
2022-12-19T08:04:01.451Z,68.54
2022-12-19T08:06:39.139Z,68.30
2022-12-19T08:09:14.001Z,68.49
2022-12-19T08:11:46.397Z,68.48
2022-12-19T08:14:18.381Z,67.94
2022-12-19T08:17:19.253Z,68.48
2022-12-19T08:19:42.337Z,68.14
2022-12-19T08:22:14.378Z,67.73
2022-12-19T08:24:46.452Z,67.69
2022-12-19T08:27:19.121Z,68.34
2022-12-19T08:29:51.427Z,68.05
2022-12-19T08:32:23.455Z,68.04
2022-12-19T08:34:56.998Z,67.43
2022-12-19T08:37:28.955Z,68.08
2022-12-19T08:40:00.969Z,67.32
2022-12-19T08:42:33.954Z,67.26
2022-12-19T08:45:06.660Z,66.91
2022-12-19T08:47:38.667Z,67.67
2022-12-19T08:50:11.515Z,66.92
2022-12-19T08:52:43.590Z,66.69
2022-12-19T08:55:15.850Z,66.14
2022-12-19T08:57:48.635Z,65.91
2022-12-19T09:00:21.368Z,66.04
2022-12-19T09:02:54.317Z,65.77
2022-12-19T09:06:03.515Z,65.51
2022-12-19T09:08:18.337Z,65.33
2022-12-19T09:10:50.531Z,64.87
2022-12-19T09:13:22.564Z,65.16
2022-12-19T09:16:10.980Z,65.06
2022-12-19T09:18:54.532Z,64.52
2022-12-19T09:21:30.273Z,64.14
2022-12-19T09:24:07.716Z,63.87
2022-12-19T09:26:42.609Z,63.83
2022-12-19T09:29:20.931Z,63.59
2022-12-19T09:31:56.401Z,63.51
2022-12-19T09:34:38.145Z,63.77
2022-12-19T09:37:16.927Z,62.56
2022-12-19T09:39:51.695Z,62.38
2022-12-19T09:42:56.938Z,62.53
2022-12-19T09:45:41.776Z,62.09
2022-12-19T09:48:24.088Z,62.03
2022-12-19T09:51:29.112Z,61.60
2022-12-19T09:54:11.908Z,61.37
2022-12-19T09:56:46.891Z,61.87
2022-12-19T09:59:39.760Z,61.02
2022-12-19T10:02:21.028Z,61.13
2022-12-19T10:05:06.587Z,60.55
2022-12-19T10:08:08.509Z,60.13
2022-12-19T10:12:40.779Z,60.15
2022-12-19T10:14:33.375Z,60.38
2022-12-19T10:17:29.644Z,60.13
2022-12-19T10:20:01.612Z,60.15
2022-12-19T10:22:56.137Z,60.07
2022-12-19T10:25:31.892Z,59.96
2022-12-19T10:28:45.562Z,59.56
2022-12-19T10:31:22.946Z,60.13
2022-12-19T10:34:16.571Z,60.53
2022-12-19T10:39:57.998Z,60.19
2022-12-19T10:42:44.384Z,59.55
2022-12-19T10:45:19.926Z,59.41
2022-12-19T10:47:58.270Z,59.16
2022-12-19T10:50:31.111Z,59.17
2022-12-19T10:53:08.711Z,59.16
2022-12-19T10:55:45.944Z,59.11
2022-12-19T10:58:38.135Z,58.48
2022-12-19T11:01:24.896Z,59.10
2022-12-19T11:04:17.810Z,58.77
2022-12-19T11:07:05.693Z,58.81
2022-12-19T11:09:41.948Z,58.53
2022-12-19T11:16:09.503Z,58.71
2022-12-19T11:19:45.314Z,58.69
2022-12-19T11:24:53.850Z,58.61
2022-12-19T11:29:19.663Z,58.72
2022-12-19T11:29:33.109Z,58.53
2022-12-19T11:30:48.179Z,59.14
2022-12-19T11:33:27.637Z,59.09
2022-12-19T11:36:02.089Z,59.32
2022-12-19T11:38:42.837Z,59.03
2022-12-19T11:41:29.609Z,59.17
2022-12-19T11:44:34.815Z,58.60
2022-12-19T11:47:32.878Z,58.99
2022-12-19T11:50:15.842Z,59.20
2022-12-19T11:53:14.668Z,59.37
2022-12-19T11:55:56.274Z,59.16
2022-12-19T11:58:30.269Z,60.32
2022-12-19T12:01:23.986Z,60.08
2022-12-19T12:04:05.462Z,60.01
2022-12-19T12:06:50.923Z,59.59
2022-12-19T12:12:39.365Z,59.65
2022-12-19T12:21:39.530Z,60.09
2022-12-19T12:28:20.920Z,59.88
2022-12-19T12:31:05.842Z,60.46
2022-12-19T12:31:06.473Z,60.72
2022-12-19T12:31:54.114Z,60.70
2022-12-19T12:32:06.314Z,60.99
2022-12-19T12:35:19.235Z,60.94
2022-12-19T12:38:36.071Z,61.03
2022-12-19T12:41:44.494Z,61.48
2022-12-19T12:44:16.604Z,61.45
2022-12-19T12:47:00.110Z,61.46
2022-12-19T12:49:46.618Z,61.53
2022-12-19T12:52:42.317Z,61.92
2022-12-19T12:55:40.642Z,61.98
2022-12-19T12:58:50.941Z,61.94
2022-12-19T13:01:29.250Z,61.99
2022-12-19T13:04:21.948Z,62.46
2022-12-19T13:06:53.970Z,62.64
2022-12-19T13:09:32.356Z,62.56
2022-12-19T13:12:42.892Z,62.98
2022-12-19T13:15:31.804Z,63.20
2022-12-19T13:18:16.020Z,63.47
2022-12-19T13:20:49.011Z,63.56
2022-12-19T13:23:30.106Z,63.59
2022-12-19T13:26:02.387Z,63.79
2022-12-19T13:28:34.345Z,63.71
2022-12-19T13:31:19.065Z,64.04
2022-12-19T13:33:55.949Z,64.28
2022-12-19T13:39:52.340Z,64.32
2022-12-19T13:40:08.739Z,64.86
2022-12-19T13:43:30.624Z,64.90
2022-12-19T13:46:06.149Z,65.19
2022-12-19T13:48:46.821Z,65.31
2022-12-19T13:51:18.822Z,65.42
2022-12-19T13:53:59.287Z,65.78
2022-12-19T13:56:32.255Z,65.46
2022-12-19T13:59:05.771Z,65.92
2022-12-19T14:01:41.101Z,66.10
2022-12-19T14:04:26.858Z,65.96
2022-12-19T14:07:05.770Z,66.16
2022-12-19T14:11:26.468Z,66.51
2022-12-19T14:13:46.190Z,66.65
2022-12-19T14:15:52.454Z,67.00
2022-12-19T14:18:42.253Z,67.23
2022-12-19T14:22:08.687Z,67.50
2022-12-19T14:24:17.860Z,67.31
2022-12-19T14:28:24.151Z,67.27
2022-12-19T14:30:30.636Z,67.54
2022-12-19T14:33:44.637Z,67.60
2022-12-19T14:36:07.423Z,67.79
2022-12-19T14:39:24.040Z,68.06
2022-12-19T14:42:04.284Z,68.41
2022-12-19T14:53:17.916Z,68.53
2022-12-19T14:53:27.802Z,68.45
2022-12-19T14:54:29.347Z,68.59
2022-12-19T14:54:37.409Z,68.61
2022-12-19T14:59:35.760Z,69.00
2022-12-19T15:02:07.864Z,69.42
2022-12-19T15:04:54.671Z,69.54
2022-12-19T15:07:33.501Z,69.83
2022-12-19T15:11:09.162Z,69.96
2022-12-19T15:14:54.259Z,69.90
2022-12-19T15:16:29.234Z,70.14
2022-12-19T15:19:02.801Z,69.80
2022-12-19T15:21:34.701Z,69.81
2022-12-19T15:24:06.693Z,70.19
2022-12-19T15:26:50.524Z,70.56
2022-12-19T15:29:22.652Z,70.28
2022-12-19T15:31:55.746Z,70.41
2022-12-19T15:34:36.333Z,69.94
2022-12-19T15:37:17.105Z,70.55
2022-12-19T15:39:49.091Z,70.53
2022-12-19T15:42:25.240Z,70.56
2022-12-19T15:45:00.219Z,70.55
2022-12-19T15:47:37.493Z,70.63
2022-12-19T15:50:29.669Z,70.62
2022-12-19T15:53:26.903Z,70.46
2022-12-19T15:56:25.019Z,70.85
2022-12-19T15:58:59.559Z,70.93
2022-12-19T16:01:36.505Z,71.03
2022-12-19T16:04:18.003Z,71.03
2022-12-19T16:06:54.076Z,71.13
2022-12-19T16:09:28.149Z,70.98
2022-12-19T16:12:00.721Z,70.93
2022-12-19T16:14:32.969Z,70.96
2022-12-19T16:17:12.351Z,70.92
2022-12-19T16:19:46.614Z,70.82
2022-12-19T16:22:28.929Z,71.03
2022-12-19T16:25:00.969Z,70.80
2022-12-19T16:27:37.344Z,70.87
2022-12-19T16:30:20.074Z,70.70
2022-12-19T16:32:56.101Z,70.57
2022-12-19T16:36:03.118Z,70.48
2022-12-19T16:38:24.146Z,70.78
2022-12-19T16:41:00.579Z,70.83
2022-12-19T16:43:41.091Z,70.50
2022-12-19T16:46:16.742Z,70.95
2022-12-19T16:48:50.178Z,70.71
2022-12-19T16:51:24.844Z,70.93
2022-12-19T16:54:00.761Z,70.83
2022-12-19T16:56:45.363Z,70.82
2022-12-19T16:59:25.295Z,70.79
2022-12-19T17:01:59.386Z,70.87
2022-12-19T17:04:31.522Z,70.70
2022-12-19T17:07:10.957Z,70.93
2022-12-19T17:09:43.328Z,71.04
2022-12-19T17:12:18.645Z,71.09
2022-12-19T17:14:50.806Z,71.10
2022-12-19T17:17:22.930Z,71.12
2022-12-19T17:19:54.961Z,70.87
2022-12-19T17:22:27.004Z,70.99
2022-12-19T17:24:59.037Z,70.91
2022-12-19T17:27:31.613Z,70.97
2022-12-19T17:30:03.825Z,71.27
2022-12-19T17:32:36.414Z,71.05
2022-12-19T17:35:16.246Z,71.25
2022-12-19T17:37:55.044Z,70.96
2022-12-19T17:40:29.838Z,70.93
2022-12-19T17:43:02.021Z,70.77
2022-12-19T17:45:34.948Z,70.80
2022-12-19T17:48:16.235Z,70.86
2022-12-19T17:50:48.453Z,70.79
2022-12-19T17:53:20.736Z,70.54
2022-12-19T17:55:53.409Z,70.47
2022-12-19T17:58:25.666Z,70.91
2022-12-19T18:00:57.732Z,70.90
2022-12-19T18:03:30.440Z,70.91
2022-12-19T18:06:05.986Z,70.62
2022-12-19T18:08:40.697Z,70.46
2022-12-19T18:11:24.620Z,70.53
2022-12-19T18:13:56.599Z,70.38
2022-12-19T18:16:31.170Z,70.54
2022-12-19T18:19:05.136Z,70.48
2022-12-19T18:21:37.169Z,70.25
2022-12-19T18:24:12.375Z,70.30
2022-12-19T18:26:45.411Z,70.21
2022-12-19T18:29:17.468Z,70.12
2022-12-19T18:31:51.090Z,70.14
2022-12-19T18:34:25.774Z,70.04
2022-12-19T18:36:57.823Z,70.13
2022-12-19T18:39:31.097Z,70.06
2022-12-19T18:42:08.613Z,70.11
2022-12-19T18:44:40.574Z,69.98
2022-12-19T18:47:23.734Z,69.88
2022-12-19T18:49:55.809Z,69.96
2022-12-19T18:52:27.751Z,69.81
2022-12-19T18:54:59.825Z,69.80
2022-12-19T18:57:31.813Z,69.39
2022-12-19T19:00:04.321Z,69.61
2022-12-19T19:02:36.643Z,69.74
2022-12-19T19:05:14.883Z,69.63
2022-12-19T19:07:47.828Z,69.58
2022-12-19T19:10:28.857Z,69.66
2022-12-19T19:13:05.178Z,70.17
2022-12-19T19:15:48.133Z,69.84
2022-12-19T19:18:23.074Z,69.82
2022-12-19T19:21:00.787Z,69.83
2022-12-19T19:23:38.614Z,69.48
2022-12-19T19:26:10.649Z,69.53
2022-12-19T19:28:45.951Z,69.56
2022-12-19T19:31:26.916Z,69.43
2022-12-19T19:34:22.264Z,69.43
2022-12-19T19:36:56.634Z,69.33
2022-12-19T19:39:32.050Z,69.26
2022-12-19T19:42:04.263Z,69.01
2022-12-19T19:44:37.352Z,69.08
2022-12-19T19:47:09.394Z,69.19
2022-12-19T19:49:41.656Z,68.97
2022-12-19T19:52:13.592Z,69.08
2022-12-19T19:54:46.119Z,68.96
2022-12-19T19:57:18.124Z,68.94
2022-12-19T19:59:50.124Z,68.75
2022-12-19T20:02:22.730Z,68.86
2022-12-19T20:04:54.853Z,68.90
2022-12-19T20:07:27.221Z,68.70
2022-12-19T20:09:59.367Z,68.88
2022-12-19T20:12:31.688Z,68.97
2022-12-19T20:15:04.786Z,68.85
2022-12-19T20:17:37.083Z,68.59
2022-12-19T20:20:09.545Z,68.69
2022-12-19T20:22:42.877Z,68.43
2022-12-19T20:25:15.046Z,68.43
2022-12-19T20:27:47.060Z,68.39
2022-12-19T20:30:19.224Z,68.38
2022-12-19T20:32:51.236Z,68.44
2022-12-19T20:35:24.180Z,68.39
2022-12-19T20:37:56.336Z,68.19
2022-12-19T20:40:28.543Z,68.63
2022-12-19T20:43:00.520Z,68.31
2022-12-19T20:45:32.764Z,68.31
2022-12-19T20:48:04.874Z,68.23
2022-12-19T20:50:42.893Z,68.32
2022-12-19T20:53:15.524Z,68.21
2022-12-19T20:55:58.136Z,68.16
2022-12-19T20:58:33.388Z,68.23
2022-12-19T21:01:08.945Z,67.93
2022-12-19T21:03:41.738Z,68.21
2022-12-19T21:06:15.502Z,68.17
2022-12-19T21:08:49.053Z,68.39
2022-12-19T21:11:21.715Z,68.32
2022-12-19T21:13:53.972Z,68.67
2022-12-19T21:16:26.154Z,68.52
2022-12-19T21:18:58.429Z,68.49
2022-12-19T21:21:30.676Z,68.44
2022-12-19T21:24:03.606Z,68.19
2022-12-19T21:26:35.769Z,68.39
2022-12-19T21:29:07.880Z,68.45
2022-12-19T21:31:43.214Z,68.45
2022-12-19T21:34:15.341Z,68.51
2022-12-19T21:36:47.487Z,68.48
2022-12-19T21:39:21.005Z,68.47
2022-12-19T21:41:53.214Z,68.31
2022-12-19T21:44:25.233Z,68.38
2022-12-19T21:46:57.295Z,68.21
2022-12-19T21:49:29.410Z,68.40
2022-12-19T21:52:01.496Z,68.47
2022-12-19T21:54:33.494Z,68.41
2022-12-19T21:57:05.615Z,68.23
2022-12-19T21:59:37.655Z,68.74
2022-12-19T22:02:11.154Z,68.46
2022-12-19T22:04:43.133Z,68.31
2022-12-19T22:07:15.736Z,68.27
2022-12-19T22:09:47.703Z,68.44
2022-12-19T22:12:19.882Z,68.50
2022-12-19T22:14:52.060Z,68.46
2022-12-19T22:17:24.045Z,68.88
2022-12-19T22:19:56.126Z,68.70
2022-12-19T22:22:28.105Z,68.93
2022-12-19T22:25:00.142Z,68.89
2022-12-19T22:27:32.159Z,68.82
2022-12-19T22:30:10.689Z,68.76
2022-12-19T22:32:43.261Z,69.21
2022-12-19T22:35:15.408Z,69.24
2022-12-19T22:37:50.677Z,69.34
2022-12-19T22:40:22.839Z,69.50
2022-12-19T22:42:55.045Z,69.85
2022-12-19T22:45:30.800Z,70.36
2022-12-19T22:48:02.961Z,70.12
2022-12-19T22:50:35.108Z,70.41
2022-12-19T22:53:12.600Z,70.80
2022-12-19T22:55:44.975Z,70.90
2022-12-19T22:58:16.982Z,70.54
2022-12-19T23:00:49.936Z,70.86
2022-12-19T23:03:22.163Z,71.23
2022-12-19T23:05:55.049Z,70.99
2022-12-19T23:08:27.017Z,71.56
2022-12-19T23:10:59.024Z,71.42
2022-12-19T23:13:30.993Z,71.23
2022-12-19T23:16:03.121Z,71.17
2022-12-19T23:18:35.574Z,71.41
2022-12-19T23:21:19.289Z,71.47
2022-12-19T23:23:54.080Z,71.29
2022-12-19T23:26:29.235Z,71.44
2022-12-19T23:29:09.750Z,71.38
2022-12-19T23:31:44.476Z,71.38
2022-12-19T23:34:17.008Z,72.31
2022-12-19T23:39:42.328Z,71.99
2022-12-19T23:42:14.295Z,72.23
2022-12-19T23:44:46.264Z,72.11
2022-12-19T23:47:18.217Z,72.06
2022-12-19T23:49:50.179Z,72.06
2022-12-19T23:52:22.178Z,72.00
2022-12-19T23:54:54.211Z,72.46
2022-12-19T23:57:26.186Z,72.29
2022-12-19T23:59:58.093Z,72.25
